This is the latest recevied weather packets stored in our database for station/object IT9CYW-12. If no packets are shown the sender has not sent any weather packets the latest 10 day(s).
| Time | Temp. | Humidity | Pressure | Rain* | Wind** | Luminosity | Snow |
|---|---|---|---|---|---|---|---|
| 1777474625 | 21.11° C | 45% | 978 hPa | - | - | 306 W/m² | - |
| 1777473725 | 21.67° C | 44% | 978 hPa | - | - | 261 W/m² | - |
| 1777472825 | 21.11° C | 45% | 978.4 hPa | - | - | 313 W/m² | - |
| 1777471924 | 21.67° C | 43% | 978.4 hPa | - | - | 189 W/m² | - |
| 1777471024 | 21.11° C | 40% | 978.5 hPa | - | - | 331 W/m² | - |
| 1777470124 | 21.11° C | 43% | 978.4 hPa | - | - | 257 W/m² | - |
| 1777469223 | 21.11° C | 44% | 978.2 hPa | - | - | 606 W/m² | - |
| 1777468321 | 21.11° C | 47% | 978.4 hPa | - | - | 334 W/m² | - |
| 1777467420 | 20° C | 53% | 978.5 hPa | - | - | 317 W/m² | - |
| 1777466520 | 20° C | 54% | 978.7 hPa | - | - | 253 W/m² | - |
| 1777465620 | 20° C | 57% | 979 hPa | - | - | 205 W/m² | - |
| 1777463826 | 20.56° C | 57% | 978.7 hPa | - | - | 151 W/m² | - |
| 1777462926 | 21.11° C | 55% | 979 hPa | - | - | 207 W/m² | - |
| 1777462026 | 22.22° C | 48% | 979.2 hPa | - | - | 446 W/m² | - |
| 1777461125 | 21.67° C | 49% | 979.2 hPa | - | - | 668 W/m² | - |
| 1777460224 | 21.11° C | 56% | 979.4 hPa | - | - | 547 W/m² | - |
| 1777459324 | 21.11° C | 56% | 979.5 hPa | - | - | 340 W/m² | - |
| 1777458423 | 20° C | 64% | 979.5 hPa | - | - | 330 W/m² | - |
| 1777457523 | 19.44° C | 65% | 979.7 hPa | - | - | 193 W/m² | - |
| 1777456623 | 19.44° C | 63% | 979.5 hPa | - | - | 137 W/m² | - |
| 1777455723 | 19.44° C | 61% | 979.9 hPa | - | - | 183 W/m² | - |
| 1777454823 | 20.56° C | 58% | 979.5 hPa | - | - | 220 W/m² | - |
| 1777453922 | 20° C | 58% | 979.5 hPa | - | - | 275 W/m² | - |
| 1777453022 | 20.56° C | 58% | 979.4 hPa | - | - | 239 W/m² | - |
| 1777452121 | 20.56° C | 59% | 979.2 hPa | - | - | 295 W/m² | - |
* Rain since midnight (hover to see other rain measurements)
** Current wind speed in m/s (hover to see current wind gust speed)